createdAt,value
2022-09-20T00:02:30.256Z,12.05
2022-09-20T00:07:32.687Z,12.02
2022-09-20T00:12:35.058Z,11.89
2022-09-20T00:17:37.505Z,11.59
2022-09-20T00:22:39.928Z,10.96
2022-09-20T00:27:42.672Z,11.05
2022-09-20T00:32:45.097Z,11.27
2022-09-20T00:37:47.493Z,11.15
2022-09-20T00:42:50.910Z,10.92
2022-09-20T00:48:15.754Z,11.08
2022-09-20T00:53:33.886Z,10.80
2022-09-20T00:58:42.939Z,10.70
2022-09-20T01:03:46.787Z,10.70
2022-09-20T01:08:54.398Z,11.07
2022-09-20T01:13:57.820Z,11.54
2022-09-20T01:19:05.293Z,11.79
2022-09-20T01:24:27.484Z,11.74
2022-09-20T01:29:44.883Z,11.49
2022-09-20T01:34:57.544Z,11.39
2022-09-20T01:40:06.457Z,10.92
2022-09-20T01:45:27.384Z,10.52
2022-09-20T01:50:32.946Z,10.67
2022-09-20T01:55:56.885Z,10.45
2022-09-20T02:01:37.784Z,10.26
2022-09-20T02:07:01.205Z,10.43
2022-09-20T02:12:37.937Z,10.62
2022-09-20T02:18:13.269Z,10.53
2022-09-20T02:23:40.239Z,10.41
2022-09-20T02:29:22.172Z,10.46
2022-09-20T02:35:05.539Z,10.93
2022-09-20T02:40:13.449Z,11.29
2022-09-20T02:45:48.428Z,11.12
2022-09-20T02:51:04.428Z,10.80
2022-09-20T02:56:34.564Z,10.66
2022-09-20T03:01:39.825Z,10.80
2022-09-20T03:07:06.639Z,10.88
2022-09-20T03:12:26.417Z,10.98
2022-09-20T03:18:08.941Z,11.14
2022-09-20T03:23:27.043Z,11.20
2022-09-20T03:28:55.236Z,10.63
2022-09-20T03:34:33.333Z,10.84
2022-09-20T03:40:06.042Z,11.02
2022-09-20T03:45:38.656Z,10.96
2022-09-20T03:50:59.189Z,11.13
2022-09-20T03:56:19.588Z,11.26
2022-09-20T04:01:33.326Z,11.33
2022-09-20T04:06:56.530Z,11.48
2022-09-20T04:12:40.147Z,11.64
2022-09-20T04:17:52.265Z,11.90
2022-09-20T04:22:58.835Z,11.99
2022-09-20T04:28:08.723Z,11.88
2022-09-20T04:33:25.246Z,12.03
2022-09-20T04:38:29.290Z,11.82
2022-09-20T04:43:52.361Z,12.02
2022-09-20T04:49:12.559Z,12.12
2022-09-20T04:54:46.017Z,11.43
2022-09-20T05:00:12.848Z,11.20
2022-09-20T05:05:21.195Z,11.62
2022-09-20T05:10:42.388Z,11.51
2022-09-20T05:16:06.030Z,11.45
2022-09-20T05:21:23.227Z,11.60
2022-09-20T05:27:03.508Z,11.61
2022-09-20T05:32:39.424Z,11.89
2022-09-20T05:38:06.144Z,12.28
2022-09-20T05:43:28.787Z,12.51
2022-09-20T05:48:46.937Z,12.68
2022-09-20T05:54:26.273Z,12.60
2022-09-20T05:59:45.710Z,12.78
2022-09-20T06:05:14.243Z,12.92
2022-09-20T06:10:55.712Z,13.31
2022-09-20T06:16:01.765Z,13.38
2022-09-20T06:21:23.741Z,13.44
2022-09-20T06:26:35.742Z,13.63
2022-09-20T06:31:38.268Z,13.58
2022-09-20T06:37:04.805Z,13.68
2022-09-20T06:42:10.626Z,13.86
2022-09-20T06:47:15.149Z,14.11
2022-09-20T06:52:22.936Z,14.27
2022-09-20T06:57:35.996Z,14.83
2022-09-20T07:02:38.582Z,15.38
2022-09-20T07:07:41.270Z,15.82
2022-09-20T07:12:43.725Z,16.16
2022-09-20T07:17:47.332Z,16.35
2022-09-20T07:22:49.867Z,17.01
2022-09-20T07:27:52.388Z,17.47
2022-09-20T07:32:55.266Z,17.34
2022-09-20T07:37:58.972Z,16.75
2022-09-20T07:43:01.167Z,17.15
2022-09-20T07:48:05.384Z,17.24
2022-09-20T07:53:07.775Z,17.48
2022-09-20T07:58:10.144Z,17.75
2022-09-20T08:03:12.547Z,18.85
2022-09-20T08:08:15.315Z,19.71
2022-09-20T08:18:51.528Z,21.22
2022-09-20T08:23:54.370Z,21.08
2022-09-20T08:28:59.012Z,22.14
2022-09-20T08:34:04.882Z,21.96
2022-09-20T08:44:36.430Z,22.49
2022-09-20T08:49:40.540Z,23.48
2022-09-20T08:54:43.652Z,24.26
2022-09-20T08:59:46.644Z,23.67
2022-09-20T09:04:51.570Z,20.87
2022-09-20T09:09:56.226Z,20.52
2022-09-20T09:15:24.006Z,21.44
2022-09-20T09:20:26.879Z,20.35
2022-09-20T09:25:38.097Z,18.22
2022-09-20T09:30:43.800Z,17.47
2022-09-20T09:35:54.259Z,18.12
2022-09-20T09:41:02.391Z,18.62
2022-09-20T09:46:23.583Z,17.98
2022-09-20T09:51:26.589Z,18.00
2022-09-20T09:56:49.671Z,17.62
2022-09-20T10:02:13.044Z,17.58
2022-09-20T10:07:21.804Z,17.70
2022-09-20T10:12:48.019Z,18.12
2022-09-20T10:17:57.591Z,17.78
2022-09-20T10:28:35.332Z,17.91
2022-09-20T10:33:50.732Z,18.21
2022-09-20T10:39:14.916Z,18.97
2022-09-20T10:44:39.467Z,18.64
2022-09-20T10:50:03.160Z,18.09
2022-09-20T10:55:30.534Z,18.28
2022-09-20T11:01:00.815Z,18.30
2022-09-20T11:06:09.119Z,18.31
2022-09-20T11:11:20.784Z,18.48
2022-09-20T11:16:41.925Z,20.38
2022-09-20T11:21:50.811Z,23.92
2022-09-20T11:27:04.257Z,27.25
2022-09-20T11:32:28.512Z,25.36
2022-09-20T11:37:40.973Z,25.48
2022-09-20T11:42:44.029Z,23.41
2022-09-20T11:47:55.526Z,21.73
2022-09-20T11:53:17.533Z,20.55
2022-09-20T11:58:22.551Z,20.13
2022-09-20T12:03:40.433Z,20.04
2022-09-20T12:08:42.910Z,20.06
2022-09-20T12:13:57.969Z,20.40
2022-09-20T12:19:00.343Z,20.45
2022-09-20T12:24:18.126Z,21.12
2022-09-20T12:29:33.076Z,19.98
2022-09-20T12:34:36.925Z,19.61
2022-09-20T12:39:50.239Z,19.45
2022-09-20T12:45:04.751Z,19.48
2022-09-20T12:50:34.207Z,19.97
2022-09-20T12:55:50.053Z,19.33
2022-09-20T13:01:04.488Z,20.08
2022-09-20T13:06:06.999Z,19.77
2022-09-20T13:11:23.865Z,19.75
2022-09-20T13:16:37.539Z,20.03
2022-09-20T13:21:47.581Z,20.11
2022-09-20T13:26:52.086Z,20.32
2022-09-20T13:31:56.434Z,20.16
2022-09-20T13:36:59.482Z,19.85
2022-09-20T13:42:07.750Z,19.48
2022-09-20T13:47:24.967Z,19.92
2022-09-20T13:52:32.290Z,20.12
2022-09-20T13:57:35.821Z,19.58
2022-09-20T14:02:39.866Z,19.13
2022-09-20T14:07:46.996Z,18.78
2022-09-20T14:12:50.083Z,18.74
2022-09-20T14:17:54.526Z,18.49
2022-09-20T14:22:59.249Z,18.29
2022-09-20T14:28:18.643Z,18.16
2022-09-20T14:33:21.868Z,18.12
2022-09-20T14:38:27.109Z,17.99
2022-09-20T14:43:33.871Z,17.66
2022-09-20T14:48:41.998Z,17.78
2022-09-20T14:53:46.824Z,17.67
2022-09-20T14:59:25.733Z,17.63
2022-09-20T15:04:29.360Z,17.55
2022-09-20T15:09:31.938Z,17.81
2022-09-20T15:14:37.918Z,18.13
2022-09-20T15:19:40.588Z,18.28
2022-09-20T15:24:43.694Z,18.09
2022-09-20T15:29:46.437Z,18.26
2022-09-20T15:34:48.800Z,18.49
2022-09-20T15:39:52.109Z,16.62
2022-09-20T15:44:54.614Z,16.73
2022-09-20T15:49:57.823Z,17.06
2022-09-20T15:55:00.776Z,17.20
2022-09-20T16:00:03.610Z,17.13
2022-09-20T16:05:11.171Z,17.15
2022-09-20T16:10:13.575Z,16.94
2022-09-20T16:15:15.989Z,16.71
2022-09-20T16:20:18.501Z,16.63
2022-09-20T16:25:20.985Z,16.58
2022-09-20T16:30:23.369Z,16.47
2022-09-20T16:35:26.189Z,16.56
2022-09-20T16:40:28.722Z,16.43
2022-09-20T16:45:31.170Z,16.39
2022-09-20T16:50:33.585Z,16.24
2022-09-20T16:55:35.965Z,15.81
2022-09-20T17:00:38.778Z,15.31
2022-09-20T17:05:42.483Z,15.30
2022-09-20T17:10:45.616Z,14.66
2022-09-20T17:15:48.427Z,14.31
2022-09-20T17:20:50.827Z,14.15
2022-09-20T17:26:06.946Z,14.51
2022-09-20T17:31:15.543Z,14.88
2022-09-20T17:36:21.377Z,15.09
2022-09-20T17:41:24.983Z,15.02
2022-09-20T17:46:30.504Z,14.79
2022-09-20T17:51:53.392Z,14.86
2022-09-20T17:56:56.406Z,14.87
2022-09-20T18:01:58.929Z,14.85
2022-09-20T18:07:03.599Z,14.80
2022-09-20T18:12:06.844Z,14.81
2022-09-20T18:17:09.287Z,14.42
2022-09-20T18:22:11.713Z,14.66
2022-09-20T18:27:14.128Z,15.00
2022-09-20T18:32:17.163Z,14.16
2022-09-20T18:37:19.573Z,13.96
2022-09-20T18:42:21.946Z,13.87
2022-09-20T18:47:24.721Z,14.02
2022-09-20T18:52:27.222Z,13.74
2022-09-20T18:57:29.991Z,13.50
2022-09-20T19:02:58.042Z,13.56
2022-09-20T19:08:38.381Z,12.96
2022-09-20T19:13:54.801Z,12.56
2022-09-20T19:19:04.171Z,12.92
2022-09-20T19:24:37.445Z,13.55
2022-09-20T19:29:41.067Z,13.39
2022-09-20T19:34:45.162Z,13.49
2022-09-20T19:40:24.434Z,13.91
2022-09-20T19:45:48.111Z,13.63
2022-09-20T19:50:52.629Z,13.79
2022-09-20T19:56:03.515Z,14.08
2022-09-20T20:01:06.271Z,14.40
2022-09-20T20:06:35.153Z,14.75
2022-09-20T20:12:07.964Z,14.25
2022-09-20T20:17:33.918Z,14.60
2022-09-20T20:23:14.025Z,14.87
2022-09-20T20:28:16.644Z,14.20
2022-09-20T20:33:19.347Z,14.18
2022-09-20T20:38:26.472Z,13.83
2022-09-20T20:43:29.970Z,13.23
2022-09-20T20:48:32.674Z,12.75
2022-09-20T20:53:54.874Z,13.02
2022-09-20T20:59:04.539Z,12.16
2022-09-20T21:04:08.315Z,11.91
2022-09-20T21:09:12.239Z,11.88
2022-09-20T21:14:15.898Z,11.80
2022-09-20T21:19:18.948Z,12.04
2022-09-20T21:24:21.372Z,12.18
2022-09-20T21:29:23.848Z,11.79
2022-09-20T21:34:26.467Z,11.68
2022-09-20T21:39:28.864Z,12.28
2022-09-20T21:44:32.463Z,12.42
2022-09-20T21:49:35.350Z,12.78
2022-09-20T21:54:37.712Z,13.04
2022-09-20T21:59:40.517Z,13.18
2022-09-20T22:04:42.908Z,13.56
2022-09-20T22:09:45.343Z,14.09
2022-09-20T22:14:47.713Z,14.35
2022-09-20T22:19:50.103Z,13.06
2022-09-20T22:24:52.479Z,12.48
2022-09-20T22:29:54.902Z,12.68
2022-09-20T22:34:59.428Z,13.21
2022-09-20T22:40:01.973Z,13.17
2022-09-20T22:45:04.665Z,13.26
2022-09-20T22:50:07.524Z,13.48
2022-09-20T22:55:10.261Z,13.29
2022-09-20T23:00:13.196Z,13.55
2022-09-20T23:05:17.044Z,13.17
2022-09-20T23:10:19.482Z,12.42
2022-09-20T23:15:21.928Z,11.75
2022-09-20T23:20:25.043Z,12.02
2022-09-20T23:25:27.510Z,12.86
2022-09-20T23:30:32.052Z,12.14
2022-09-20T23:35:34.464Z,11.86
2022-09-20T23:40:36.969Z,10.86
2022-09-20T23:45:41.463Z,10.44
2022-09-20T23:50:44.218Z,11.13
2022-09-20T23:55:46.609Z,11.70
